sensor_id;sensor_type;location;lat;lon;timestamp;temperature;humidity
10911;DHT22;5508;49.150;11.030;2023-07-20T00:02:42;14.70;99.90
10911;DHT22;5508;49.150;11.030;2023-07-20T00:05:43;14.60;99.90
10911;DHT22;5508;49.150;11.030;2023-07-20T00:08:44;14.50;99.90
10911;DHT22;5508;49.150;11.030;2023-07-20T00:11:49;14.50;99.90
10911;DHT22;5508;49.150;11.030;2023-07-20T00:14:53;14.60;99.90
10911;DHT22;5508;49.150;11.030;2023-07-20T00:17:54;14.50;99.90
10911;DHT22;5508;49.150;11.030;2023-07-20T00:20:54;14.40;99.90
10911;DHT22;5508;49.150;11.030;2023-07-20T00:23:55;14.30;99.90
10911;DHT22;5508;49.150;11.030;2023-07-20T00:26:56;14.30;99.90
10911;DHT22;5508;49.150;11.030;2023-07-20T00:29:56;14.30;99.90
10911;DHT22;5508;49.150;11.030;2023-07-20T00:32:57;14.40;99.90
10911;DHT22;5508;49.150;11.030;2023-07-20T00:35:57;14.40;99.90
10911;DHT22;5508;49.150;11.030;2023-07-20T00:38:58;14.40;99.90
10911;DHT22;5508;49.150;11.030;2023-07-20T00:41:58;14.40;99.90
10911;DHT22;5508;49.150;11.030;2023-07-20T00:44:59;14.40;99.90
10911;DHT22;5508;49.150;11.030;2023-07-20T00:48:01;14.40;99.90
10911;DHT22;5508;49.150;11.030;2023-07-20T00:51:02;14.60;99.90
10911;DHT22;5508;49.150;11.030;2023-07-20T00:54:03;14.60;99.90
10911;DHT22;5508;49.150;11.030;2023-07-20T00:57:04;14.70;99.90
10911;DHT22;5508;49.150;11.030;2023-07-20T01:00:06;14.80;99.90
10911;DHT22;5508;49.150;11.030;2023-07-20T01:03:06;14.80;99.90
10911;DHT22;5508;49.150;11.030;2023-07-20T01:10:06;15.00;99.90
10911;DHT22;5508;49.150;11.030;2023-07-20T01:13:10;15.00;99.90
10911;DHT22;5508;49.150;11.030;2023-07-20T01:16:11;15.00;99.90
10911;DHT22;5508;49.150;11.030;2023-07-20T01:19:14;15.00;99.90
10911;DHT22;5508;49.150;11.030;2023-07-20T01:29:17;15.20;99.90
10911;DHT22;5508;49.150;11.030;2023-07-20T01:32:23;15.20;99.90
10911;DHT22;5508;49.150;11.030;2023-07-20T01:35:28;15.20;99.90
10911;DHT22;5508;49.150;11.030;2023-07-20T01:38:30;15.20;99.90
10911;DHT22;5508;49.150;11.030;2023-07-20T01:41:31;15.20;99.90
10911;DHT22;5508;49.150;11.030;2023-07-20T01:44:32;15.20;99.90
10911;DHT22;5508;49.150;11.030;2023-07-20T01:47:32;15.10;99.90
10911;DHT22;5508;49.150;11.030;2023-07-20T01:50:33;15.10;99.90
10911;DHT22;5508;49.150;11.030;2023-07-20T01:53:34;15.10;99.90
10911;DHT22;5508;49.150;11.030;2023-07-20T01:56:35;15.20;99.90
10911;DHT22;5508;49.150;11.030;2023-07-20T01:59:36;15.20;99.90
10911;DHT22;5508;49.150;11.030;2023-07-20T02:02:36;15.20;99.90
10911;DHT22;5508;49.150;11.030;2023-07-20T02:05:37;15.20;99.90
10911;DHT22;5508;49.150;11.030;2023-07-20T02:08:38;15.20;99.90
10911;DHT22;5508;49.150;11.030;2023-07-20T02:11:38;15.20;99.90
10911;DHT22;5508;49.150;11.030;2023-07-20T02:14:39;15.20;99.90
10911;DHT22;5508;49.150;11.030;2023-07-20T02:17:39;15.30;99.90
10911;DHT22;5508;49.150;11.030;2023-07-20T02:20:41;15.20;99.90
10911;DHT22;5508;49.150;11.030;2023-07-20T02:23:42;15.10;99.90
10911;DHT22;5508;49.150;11.030;2023-07-20T02:26:43;15.00;99.90
10911;DHT22;5508;49.150;11.030;2023-07-20T02:29:44;15.00;99.90
10911;DHT22;5508;49.150;11.030;2023-07-20T02:32:44;14.90;99.90
10911;DHT22;5508;49.150;11.030;2023-07-20T02:35:49;14.80;99.90
10911;DHT22;5508;49.150;11.030;2023-07-20T02:38:49;14.90;99.90
10911;DHT22;5508;49.150;11.030;2023-07-20T02:41:50;14.90;99.90
10911;DHT22;5508;49.150;11.030;2023-07-20T02:44:51;15.10;99.90
10911;DHT22;5508;49.150;11.030;2023-07-20T02:47:51;15.20;97.40
10911;DHT22;5508;49.150;11.030;2023-07-20T02:50:52;15.30;96.70
10911;DHT22;5508;49.150;11.030;2023-07-20T02:53:52;15.20;96.90
10911;DHT22;5508;49.150;11.030;2023-07-20T02:56:53;15.40;92.80
10911;DHT22;5508;49.150;11.030;2023-07-20T02:59:54;15.40;93.30
10911;DHT22;5508;49.150;11.030;2023-07-20T03:02:55;15.30;94.70
10911;DHT22;5508;49.150;11.030;2023-07-20T03:05:56;15.40;92.60
10911;DHT22;5508;49.150;11.030;2023-07-20T03:08:58;15.30;92.00
10911;DHT22;5508;49.150;11.030;2023-07-20T03:11:58;15.30;92.70
10911;DHT22;5508;49.150;11.030;2023-07-20T03:14:59;15.20;92.50
10911;DHT22;5508;49.150;11.030;2023-07-20T03:17:59;15.10;93.50
10911;DHT22;5508;49.150;11.030;2023-07-20T03:21:00;15.00;93.60
10911;DHT22;5508;49.150;11.030;2023-07-20T03:24:01;15.10;93.30
10911;DHT22;5508;49.150;11.030;2023-07-20T03:27:01;15.10;91.90
10911;DHT22;5508;49.150;11.030;2023-07-20T03:30:02;15.10;94.70
10911;DHT22;5508;49.150;11.030;2023-07-20T03:33:03;15.00;93.50
10911;DHT22;5508;49.150;11.030;2023-07-20T03:36:04;15.00;92.40
10911;DHT22;5508;49.150;11.030;2023-07-20T03:39:05;15.10;92.60
10911;DHT22;5508;49.150;11.030;2023-07-20T03:42:06;15.00;93.10
10911;DHT22;5508;49.150;11.030;2023-07-20T03:45:07;15.00;91.90
10911;DHT22;5508;49.150;11.030;2023-07-20T03:48:07;15.00;93.70
10911;DHT22;5508;49.150;11.030;2023-07-20T03:51:08;15.00;94.50
10911;DHT22;5508;49.150;11.030;2023-07-20T03:54:09;15.00;93.90
10911;DHT22;5508;49.150;11.030;2023-07-20T03:57:09;15.10;92.60
10911;DHT22;5508;49.150;11.030;2023-07-20T04:00:10;15.10;92.80
10911;DHT22;5508;49.150;11.030;2023-07-20T04:03:13;15.00;93.40
10911;DHT22;5508;49.150;11.030;2023-07-20T04:06:13;15.00;91.70
10911;DHT22;5508;49.150;11.030;2023-07-20T04:09:14;15.00;91.70
10911;DHT22;5508;49.150;11.030;2023-07-20T04:12:15;15.00;91.30
10911;DHT22;5508;49.150;11.030;2023-07-20T04:15:16;15.00;91.20
10911;DHT22;5508;49.150;11.030;2023-07-20T04:18:16;15.00;91.70
10911;DHT22;5508;49.150;11.030;2023-07-20T04:21:17;15.10;91.90
10911;DHT22;5508;49.150;11.030;2023-07-20T04:24:17;15.10;92.60
10911;DHT22;5508;49.150;11.030;2023-07-20T04:27:18;15.10;90.60
10911;DHT22;5508;49.150;11.030;2023-07-20T04:30:19;15.20;90.10
10911;DHT22;5508;49.150;11.030;2023-07-20T04:33:23;15.30;89.60
10911;DHT22;5508;49.150;11.030;2023-07-20T04:36:23;15.20;90.70
10911;DHT22;5508;49.150;11.030;2023-07-20T04:39:24;15.10;90.80
10911;DHT22;5508;49.150;11.030;2023-07-20T04:42:24;15.20;92.30
10911;DHT22;5508;49.150;11.030;2023-07-20T04:45:25;15.30;91.90
10911;DHT22;5508;49.150;11.030;2023-07-20T04:48:25;15.30;91.40
10911;DHT22;5508;49.150;11.030;2023-07-20T04:51:26;15.50;90.70
10911;DHT22;5508;49.150;11.030;2023-07-20T04:54:28;15.70;90.60
10911;DHT22;5508;49.150;11.030;2023-07-20T04:57:28;15.80;88.90
10911;DHT22;5508;49.150;11.030;2023-07-20T05:00:30;16.00;89.80
10911;DHT22;5508;49.150;11.030;2023-07-20T05:03:30;16.10;90.00
10911;DHT22;5508;49.150;11.030;2023-07-20T05:06:31;16.20;88.60
10911;DHT22;5508;49.150;11.030;2023-07-20T05:09:32;16.30;88.30
10911;DHT22;5508;49.150;11.030;2023-07-20T05:12:32;16.40;86.40
10911;DHT22;5508;49.150;11.030;2023-07-20T05:15:33;16.50;86.90
10911;DHT22;5508;49.150;11.030;2023-07-20T05:18:35;16.50;85.80
10911;DHT22;5508;49.150;11.030;2023-07-20T05:21:35;16.70;85.40
10911;DHT22;5508;49.150;11.030;2023-07-20T05:24:36;16.90;82.80
10911;DHT22;5508;49.150;11.030;2023-07-20T05:27:37;17.10;82.90
10911;DHT22;5508;49.150;11.030;2023-07-20T05:30:39;17.40;81.70
10911;DHT22;5508;49.150;11.030;2023-07-20T05:33:40;17.40;80.90
10911;DHT22;5508;49.150;11.030;2023-07-20T05:36:40;17.30;80.80
10911;DHT22;5508;49.150;11.030;2023-07-20T05:39:41;17.10;80.60
10911;DHT22;5508;49.150;11.030;2023-07-20T05:42:42;17.10;80.30
10911;DHT22;5508;49.150;11.030;2023-07-20T05:45:43;17.20;79.60
10911;DHT22;5508;49.150;11.030;2023-07-20T05:48:44;17.30;78.90
10911;DHT22;5508;49.150;11.030;2023-07-20T05:51:44;17.50;79.90
10911;DHT22;5508;49.150;11.030;2023-07-20T05:54:47;17.70;79.80
10911;DHT22;5508;49.150;11.030;2023-07-20T05:57:47;17.80;77.80
10911;DHT22;5508;49.150;11.030;2023-07-20T06:00:49;17.90;79.60
10911;DHT22;5508;49.150;11.030;2023-07-20T06:03:51;18.00;77.20
10911;DHT22;5508;49.150;11.030;2023-07-20T06:06:51;18.00;78.30
10911;DHT22;5508;49.150;11.030;2023-07-20T06:09:52;18.00;77.60
10911;DHT22;5508;49.150;11.030;2023-07-20T06:12:53;18.10;78.00
10911;DHT22;5508;49.150;11.030;2023-07-20T06:15:53;18.00;76.40
10911;DHT22;5508;49.150;11.030;2023-07-20T06:18:54;18.10;78.00
10911;DHT22;5508;49.150;11.030;2023-07-20T06:21:54;18.20;76.50
10911;DHT22;5508;49.150;11.030;2023-07-20T06:24:55;18.20;76.70
10911;DHT22;5508;49.150;11.030;2023-07-20T06:27:56;18.40;77.50
10911;DHT22;5508;49.150;11.030;2023-07-20T06:31:01;18.40;74.50
10911;DHT22;5508;49.150;11.030;2023-07-20T06:34:02;18.40;74.70
10911;DHT22;5508;49.150;11.030;2023-07-20T06:37:04;18.50;73.90
10911;DHT22;5508;49.150;11.030;2023-07-20T06:40:05;18.50;74.10
10911;DHT22;5508;49.150;11.030;2023-07-20T06:43:06;18.70;73.40
10911;DHT22;5508;49.150;11.030;2023-07-20T06:46:07;18.80;73.30
10911;DHT22;5508;49.150;11.030;2023-07-20T06:49:07;19.00;72.60
10911;DHT22;5508;49.150;11.030;2023-07-20T06:52:08;19.30;69.50
10911;DHT22;5508;49.150;11.030;2023-07-20T06:55:09;19.40;69.30
10911;DHT22;5508;49.150;11.030;2023-07-20T06:58:10;19.40;69.30
10911;DHT22;5508;49.150;11.030;2023-07-20T07:01:11;19.40;70.70
10911;DHT22;5508;49.150;11.030;2023-07-20T07:04:12;19.10;70.20
10911;DHT22;5508;49.150;11.030;2023-07-20T07:07:15;19.20;69.60
10911;DHT22;5508;49.150;11.030;2023-07-20T07:10:16;19.30;70.00
10911;DHT22;5508;49.150;11.030;2023-07-20T07:13:16;19.60;67.80
10911;DHT22;5508;49.150;11.030;2023-07-20T07:16:18;19.50;68.10
10911;DHT22;5508;49.150;11.030;2023-07-20T07:19:21;19.60;67.10
10911;DHT22;5508;49.150;11.030;2023-07-20T07:22:22;19.80;68.40
10911;DHT22;5508;49.150;11.030;2023-07-20T07:25:23;19.90;66.20
10911;DHT22;5508;49.150;11.030;2023-07-20T07:28:23;19.80;65.80
10911;DHT22;5508;49.150;11.030;2023-07-20T07:31:30;19.90;64.10
10911;DHT22;5508;49.150;11.030;2023-07-20T07:34:31;19.60;64.20
10911;DHT22;5508;49.150;11.030;2023-07-20T07:37:34;19.80;67.00
10911;DHT22;5508;49.150;11.030;2023-07-20T07:40:35;19.70;64.40
10911;DHT22;5508;49.150;11.030;2023-07-20T07:43:36;20.20;63.40
10911;DHT22;5508;49.150;11.030;2023-07-20T07:46:37;20.50;61.10
10911;DHT22;5508;49.150;11.030;2023-07-20T07:49:37;20.50;63.40
10911;DHT22;5508;49.150;11.030;2023-07-20T07:52:38;20.20;61.40
10911;DHT22;5508;49.150;11.030;2023-07-20T07:55:39;19.80;61.50
10911;DHT22;5508;49.150;11.030;2023-07-20T07:58:39;19.80;60.70
10911;DHT22;5508;49.150;11.030;2023-07-20T08:01:41;20.10;60.60
10911;DHT22;5508;49.150;11.030;2023-07-20T08:04:41;20.50;58.60
10911;DHT22;5508;49.150;11.030;2023-07-20T08:07:42;20.80;61.60
10911;DHT22;5508;49.150;11.030;2023-07-20T08:10:43;20.50;57.60
10911;DHT22;5508;49.150;11.030;2023-07-20T08:13:44;20.10;58.40
10911;DHT22;5508;49.150;11.030;2023-07-20T08:16:44;20.10;58.80
10911;DHT22;5508;49.150;11.030;2023-07-20T08:19:46;20.30;58.50
10911;DHT22;5508;49.150;11.030;2023-07-20T08:22:47;20.40;58.60
10911;DHT22;5508;49.150;11.030;2023-07-20T08:25:47;20.10;55.40
10911;DHT22;5508;49.150;11.030;2023-07-20T08:28:48;20.40;56.20
10911;DHT22;5508;49.150;11.030;2023-07-20T08:31:49;21.00;53.50
10911;DHT22;5508;49.150;11.030;2023-07-20T08:34:49;20.80;55.50
10911;DHT22;5508;49.150;11.030;2023-07-20T08:37:50;20.70;54.20
10911;DHT22;5508;49.150;11.030;2023-07-20T08:40:51;20.30;56.90
10911;DHT22;5508;49.150;11.030;2023-07-20T08:43:54;19.80;56.80
10911;DHT22;5508;49.150;11.030;2023-07-20T08:46:57;19.70;59.00
10911;DHT22;5508;49.150;11.030;2023-07-20T08:49:59;20.10;59.10
10911;DHT22;5508;49.150;11.030;2023-07-20T08:53:01;20.60;58.80
10911;DHT22;5508;49.150;11.030;2023-07-20T08:56:02;21.30;53.50
10911;DHT22;5508;49.150;11.030;2023-07-20T08:59:04;21.10;54.70
10911;DHT22;5508;49.150;11.030;2023-07-20T09:02:05;20.70;54.60
10911;DHT22;5508;49.150;11.030;2023-07-20T09:05:08;20.60;55.90
10911;DHT22;5508;49.150;11.030;2023-07-20T09:08:09;20.90;54.70
10911;DHT22;5508;49.150;11.030;2023-07-20T09:11:11;21.40;52.40
10911;DHT22;5508;49.150;11.030;2023-07-20T09:14:12;21.80;49.70
10911;DHT22;5508;49.150;11.030;2023-07-20T09:17:14;22.00;49.70
10911;DHT22;5508;49.150;11.030;2023-07-20T09:20:16;22.30;49.50
10911;DHT22;5508;49.150;11.030;2023-07-20T09:23:17;22.20;49.60
10911;DHT22;5508;49.150;11.030;2023-07-20T09:26:18;22.40;46.60
10911;DHT22;5508;49.150;11.030;2023-07-20T09:29:19;22.30;46.50
10911;DHT22;5508;49.150;11.030;2023-07-20T09:32:21;22.90;47.00
10911;DHT22;5508;49.150;11.030;2023-07-20T09:35:22;23.00;44.10
10911;DHT22;5508;49.150;11.030;2023-07-20T09:38:26;22.20;45.40
10911;DHT22;5508;49.150;11.030;2023-07-20T09:41:26;21.60;48.90
10911;DHT22;5508;49.150;11.030;2023-07-20T09:44:28;21.50;48.80
10911;DHT22;5508;49.150;11.030;2023-07-20T09:47:28;22.10;47.40
10911;DHT22;5508;49.150;11.030;2023-07-20T09:50:29;22.50;44.50
10911;DHT22;5508;49.150;11.030;2023-07-20T09:53:30;22.50;42.80
10911;DHT22;5508;49.150;11.030;2023-07-20T09:56:33;22.90;42.70
10911;DHT22;5508;49.150;11.030;2023-07-20T09:59:34;23.20;42.50
10911;DHT22;5508;49.150;11.030;2023-07-20T10:02:38;23.00;42.50
10911;DHT22;5508;49.150;11.030;2023-07-20T10:05:43;22.70;41.00
10911;DHT22;5508;49.150;11.030;2023-07-20T10:08:47;23.20;43.80
10911;DHT22;5508;49.150;11.030;2023-07-20T10:11:50;23.30;41.80
10911;DHT22;5508;49.150;11.030;2023-07-20T10:15:03;23.30;40.60
10911;DHT22;5508;49.150;11.030;2023-07-20T10:18:22;23.20;39.80
10911;DHT22;5508;49.150;11.030;2023-07-20T10:21:26;23.20;45.00
10911;DHT22;5508;49.150;11.030;2023-07-20T10:24:28;23.20;41.10
10911;DHT22;5508;49.150;11.030;2023-07-20T10:27:28;22.70;41.00
10911;DHT22;5508;49.150;11.030;2023-07-20T10:30:29;22.50;43.20
10911;DHT22;5508;49.150;11.030;2023-07-20T10:33:30;22.50;41.70
10911;DHT22;5508;49.150;11.030;2023-07-20T10:36:31;22.80;43.50
10911;DHT22;5508;49.150;11.030;2023-07-20T10:39:32;23.50;39.70
10911;DHT22;5508;49.150;11.030;2023-07-20T10:42:33;24.00;39.70
10911;DHT22;5508;49.150;11.030;2023-07-20T10:45:36;23.90;39.20
10911;DHT22;5508;49.150;11.030;2023-07-20T10:49:00;24.20;41.00
10911;DHT22;5508;49.150;11.030;2023-07-20T10:52:05;24.20;37.20
10911;DHT22;5508;49.150;11.030;2023-07-20T10:55:16;23.80;36.30
10911;DHT22;5508;49.150;11.030;2023-07-20T10:58:17;23.70;36.80
10911;DHT22;5508;49.150;11.030;2023-07-20T11:01:19;23.40;37.90
10911;DHT22;5508;49.150;11.030;2023-07-20T11:04:37;22.60;38.20
10911;DHT22;5508;49.150;11.030;2023-07-20T11:07:38;22.90;40.30
10911;DHT22;5508;49.150;11.030;2023-07-20T11:10:39;23.20;38.70
10911;DHT22;5508;49.150;11.030;2023-07-20T11:14:03;23.40;39.30
10911;DHT22;5508;49.150;11.030;2023-07-20T11:17:15;23.90;38.50
10911;DHT22;5508;49.150;11.030;2023-07-20T11:20:16;24.00;38.00
10911;DHT22;5508;49.150;11.030;2023-07-20T11:23:16;24.10;36.10
10911;DHT22;5508;49.150;11.030;2023-07-20T11:26:17;24.20;37.00
10911;DHT22;5508;49.150;11.030;2023-07-20T11:29:21;24.10;37.60
10911;DHT22;5508;49.150;11.030;2023-07-20T11:32:23;24.20;37.70
10911;DHT22;5508;49.150;11.030;2023-07-20T11:35:24;24.50;37.80
10911;DHT22;5508;49.150;11.030;2023-07-20T11:38:25;24.50;36.50
10911;DHT22;5508;49.150;11.030;2023-07-20T11:41:26;24.90;36.40
10911;DHT22;5508;49.150;11.030;2023-07-20T11:44:28;25.00;33.80
10911;DHT22;5508;49.150;11.030;2023-07-20T11:47:29;25.00;33.90
10911;DHT22;5508;49.150;11.030;2023-07-20T11:50:29;25.00;35.30
10911;DHT22;5508;49.150;11.030;2023-07-20T11:53:30;24.20;35.60
10911;DHT22;5508;49.150;11.030;2023-07-20T11:56:33;24.00;37.20
10911;DHT22;5508;49.150;11.030;2023-07-20T11:59:34;24.40;36.10
10911;DHT22;5508;49.150;11.030;2023-07-20T12:02:35;24.70;33.40
10911;DHT22;5508;49.150;11.030;2023-07-20T12:05:37;25.00;34.80
10911;DHT22;5508;49.150;11.030;2023-07-20T12:08:39;25.40;35.00
10911;DHT22;5508;49.150;11.030;2023-07-20T12:11:43;25.20;34.30
10911;DHT22;5508;49.150;11.030;2023-07-20T12:14:45;24.50;36.30
10911;DHT22;5508;49.150;11.030;2023-07-20T12:17:48;24.20;36.30
10911;DHT22;5508;49.150;11.030;2023-07-20T12:20:58;24.30;35.20
10911;DHT22;5508;49.150;11.030;2023-07-20T12:23:59;24.70;36.20
10911;DHT22;5508;49.150;11.030;2023-07-20T12:27:00;25.10;34.70
10911;DHT22;5508;49.150;11.030;2023-07-20T12:30:00;25.30;33.10
10911;DHT22;5508;49.150;11.030;2023-07-20T12:33:02;25.30;33.00
10911;DHT22;5508;49.150;11.030;2023-07-20T12:36:03;25.60;33.00
10911;DHT22;5508;49.150;11.030;2023-07-20T12:39:04;25.70;31.00
10911;DHT22;5508;49.150;11.030;2023-07-20T12:42:05;25.30;33.00
10911;DHT22;5508;49.150;11.030;2023-07-20T12:45:06;25.10;33.40
10911;DHT22;5508;49.150;11.030;2023-07-20T12:48:07;24.40;34.30
10911;DHT22;5508;49.150;11.030;2023-07-20T12:51:09;24.30;35.00
10911;DHT22;5508;49.150;11.030;2023-07-20T12:54:09;24.50;35.00
10911;DHT22;5508;49.150;11.030;2023-07-20T12:57:10;24.40;33.90
10911;DHT22;5508;49.150;11.030;2023-07-20T13:00:11;24.20;34.40
10911;DHT22;5508;49.150;11.030;2023-07-20T13:03:12;24.50;36.00
10911;DHT22;5508;49.150;11.030;2023-07-20T13:06:12;24.90;34.70
10911;DHT22;5508;49.150;11.030;2023-07-20T13:09:13;24.70;33.40
10911;DHT22;5508;49.150;11.030;2023-07-20T13:12:13;24.40;33.50
10911;DHT22;5508;49.150;11.030;2023-07-20T13:15:14;24.70;33.30
10911;DHT22;5508;49.150;11.030;2023-07-20T13:18:15;25.30;33.20
10911;DHT22;5508;49.150;11.030;2023-07-20T13:21:16;25.60;32.50
10911;DHT22;5508;49.150;11.030;2023-07-20T13:24:17;25.40;32.20
10911;DHT22;5508;49.150;11.030;2023-07-20T13:27:17;25.50;32.30
10911;DHT22;5508;49.150;11.030;2023-07-20T13:30:18;25.30;32.30
10911;DHT22;5508;49.150;11.030;2023-07-20T13:33:19;25.30;31.30
10911;DHT22;5508;49.150;11.030;2023-07-20T13:36:20;25.70;30.10
10911;DHT22;5508;49.150;11.030;2023-07-20T13:39:21;25.90;30.60
10911;DHT22;5508;49.150;11.030;2023-07-20T13:42:24;25.90;30.30
10911;DHT22;5508;49.150;11.030;2023-07-20T13:45:25;25.80;30.70
10911;DHT22;5508;49.150;11.030;2023-07-20T13:48:25;25.40;31.80
10911;DHT22;5508;49.150;11.030;2023-07-20T13:51:27;25.10;31.60
10911;DHT22;5508;49.150;11.030;2023-07-20T13:54:28;25.10;32.90
10911;DHT22;5508;49.150;11.030;2023-07-20T13:57:28;25.20;31.40
10911;DHT22;5508;49.150;11.030;2023-07-20T14:00:29;25.30;31.30
10911;DHT22;5508;49.150;11.030;2023-07-20T14:03:33;25.50;31.10
10911;DHT22;5508;49.150;11.030;2023-07-20T14:06:33;25.20;31.70
10911;DHT22;5508;49.150;11.030;2023-07-20T14:09:34;24.80;31.40
10911;DHT22;5508;49.150;11.030;2023-07-20T14:12:35;25.00;30.80
10911;DHT22;5508;49.150;11.030;2023-07-20T14:15:35;25.40;31.20
10911;DHT22;5508;49.150;11.030;2023-07-20T14:18:36;25.70;29.70
10911;DHT22;5508;49.150;11.030;2023-07-20T14:21:36;25.80;28.00
10911;DHT22;5508;49.150;11.030;2023-07-20T14:24:37;25.50;28.20
10911;DHT22;5508;49.150;11.030;2023-07-20T14:27:37;25.00;28.90
10911;DHT22;5508;49.150;11.030;2023-07-20T14:30:38;24.70;29.40
10911;DHT22;5508;49.150;11.030;2023-07-20T14:33:39;24.80;27.70
10911;DHT22;5508;49.150;11.030;2023-07-20T14:36:39;24.90;29.00
10911;DHT22;5508;49.150;11.030;2023-07-20T14:39:40;24.80;28.30
10911;DHT22;5508;49.150;11.030;2023-07-20T14:42:41;24.40;30.70
10911;DHT22;5508;49.150;11.030;2023-07-20T14:45:41;24.60;29.90
10911;DHT22;5508;49.150;11.030;2023-07-20T14:48:42;24.70;28.10
10911;DHT22;5508;49.150;11.030;2023-07-20T14:51:43;25.00;28.80
10911;DHT22;5508;49.150;11.030;2023-07-20T14:54:43;24.80;28.90
10911;DHT22;5508;49.150;11.030;2023-07-20T14:57:44;24.90;29.30
10911;DHT22;5508;49.150;11.030;2023-07-20T15:00:45;25.10;27.60
10911;DHT22;5508;49.150;11.030;2023-07-20T15:03:45;24.70;27.80
10911;DHT22;5508;49.150;11.030;2023-07-20T15:06:46;24.40;28.50
10911;DHT22;5508;49.150;11.030;2023-07-20T15:09:46;24.40;28.50
10911;DHT22;5508;49.150;11.030;2023-07-20T15:12:47;24.60;26.50
10911;DHT22;5508;49.150;11.030;2023-07-20T15:15:49;24.80;27.70
10911;DHT22;5508;49.150;11.030;2023-07-20T15:18:49;24.80;26.10
10911;DHT22;5508;49.150;11.030;2023-07-20T15:21:50;24.90;26.60
10911;DHT22;5508;49.150;11.030;2023-07-20T15:24:51;24.80;26.80
10911;DHT22;5508;49.150;11.030;2023-07-20T15:27:51;24.70;27.30
10911;DHT22;5508;49.150;11.030;2023-07-20T15:30:59;24.80;26.40
10911;DHT22;5508;49.150;11.030;2023-07-20T15:34:01;24.60;27.10
10911;DHT22;5508;49.150;11.030;2023-07-20T15:37:01;24.70;27.70
10911;DHT22;5508;49.150;11.030;2023-07-20T15:40:03;24.80;26.40
10911;DHT22;5508;49.150;11.030;2023-07-20T15:43:04;24.70;25.10
10911;DHT22;5508;49.150;11.030;2023-07-20T15:49:38;24.50;26.10
10911;DHT22;5508;49.150;11.030;2023-07-20T15:52:39;24.50;26.00
10911;DHT22;5508;49.150;11.030;2023-07-20T15:55:40;24.40;27.00
10911;DHT22;5508;49.150;11.030;2023-07-20T15:58:40;24.40;26.40
10911;DHT22;5508;49.150;11.030;2023-07-20T16:01:41;24.30;27.20
10911;DHT22;5508;49.150;11.030;2023-07-20T16:04:42;24.40;27.10
10911;DHT22;5508;49.150;11.030;2023-07-20T16:07:45;24.30;27.80
10911;DHT22;5508;49.150;11.030;2023-07-20T16:10:46;24.30;28.40
10911;DHT22;5508;49.150;11.030;2023-07-20T16:13:47;24.10;28.40
10911;DHT22;5508;49.150;11.030;2023-07-20T16:16:47;24.10;28.40
10911;DHT22;5508;49.150;11.030;2023-07-20T16:19:48;24.30;28.20
10911;DHT22;5508;49.150;11.030;2023-07-20T16:22:48;24.20;29.00
10911;DHT22;5508;49.150;11.030;2023-07-20T16:25:49;24.20;29.50
10911;DHT22;5508;49.150;11.030;2023-07-20T16:28:50;24.20;29.20
10911;DHT22;5508;49.150;11.030;2023-07-20T16:31:50;24.20;29.60
10911;DHT22;5508;49.150;11.030;2023-07-20T16:34:51;24.10;30.10
10911;DHT22;5508;49.150;11.030;2023-07-20T16:37:51;23.80;31.00
10911;DHT22;5508;49.150;11.030;2023-07-20T16:40:56;23.70;30.30
10911;DHT22;5508;49.150;11.030;2023-07-20T16:43:57;23.70;31.80
10911;DHT22;5508;49.150;11.030;2023-07-20T16:46:57;23.70;31.40
10911;DHT22;5508;49.150;11.030;2023-07-20T16:49:58;23.60;32.10
10911;DHT22;5508;49.150;11.030;2023-07-20T16:52:59;23.40;34.00
10911;DHT22;5508;49.150;11.030;2023-07-20T16:56:00;23.30;32.80
10911;DHT22;5508;49.150;11.030;2023-07-20T16:59:01;23.10;33.00
10911;DHT22;5508;49.150;11.030;2023-07-20T17:02:01;22.90;32.80
10911;DHT22;5508;49.150;11.030;2023-07-20T17:05:02;22.90;34.00
10911;DHT22;5508;49.150;11.030;2023-07-20T17:08:04;22.80;32.90
10911;DHT22;5508;49.150;11.030;2023-07-20T17:11:04;22.90;32.70
10911;DHT22;5508;49.150;11.030;2023-07-20T17:14:05;22.90;34.20
10911;DHT22;5508;49.150;11.030;2023-07-20T17:17:06;22.90;33.80
10911;DHT22;5508;49.150;11.030;2023-07-20T17:20:07;23.00;34.80
10911;DHT22;5508;49.150;11.030;2023-07-20T17:23:11;23.00;32.80
10911;DHT22;5508;49.150;11.030;2023-07-20T17:26:11;23.00;34.00
10911;DHT22;5508;49.150;11.030;2023-07-20T17:29:12;22.90;33.40
10911;DHT22;5508;49.150;11.030;2023-07-20T17:32:13;22.80;33.20
10911;DHT22;5508;49.150;11.030;2023-07-20T17:35:13;22.70;35.90
10911;DHT22;5508;49.150;11.030;2023-07-20T17:38:14;22.70;36.00
10911;DHT22;5508;49.150;11.030;2023-07-20T17:41:14;22.60;35.20
10911;DHT22;5508;49.150;11.030;2023-07-20T17:44:15;22.50;35.00
10911;DHT22;5508;49.150;11.030;2023-07-20T17:47:16;22.50;35.70
10911;DHT22;5508;49.150;11.030;2023-07-20T17:50:17;22.40;37.10
10911;DHT22;5508;49.150;11.030;2023-07-20T17:53:18;22.40;37.10
10911;DHT22;5508;49.150;11.030;2023-07-20T17:56:18;22.40;36.40
10911;DHT22;5508;49.150;11.030;2023-07-20T17:59:19;22.40;37.50
10911;DHT22;5508;49.150;11.030;2023-07-20T18:02:20;22.30;36.30
10911;DHT22;5508;49.150;11.030;2023-07-20T18:05:25;22.20;36.80
10911;DHT22;5508;49.150;11.030;2023-07-20T18:08:25;22.10;37.10
10911;DHT22;5508;49.150;11.030;2023-07-20T18:11:26;22.00;37.40
10911;DHT22;5508;49.150;11.030;2023-07-20T18:14:27;21.80;38.80
10911;DHT22;5508;49.150;11.030;2023-07-20T18:17:27;21.70;38.80
10911;DHT22;5508;49.150;11.030;2023-07-20T18:20:28;21.60;39.50
10911;DHT22;5508;49.150;11.030;2023-07-20T18:23:28;21.50;38.60
10911;DHT22;5508;49.150;11.030;2023-07-20T18:26:29;21.50;38.90
10911;DHT22;5508;49.150;11.030;2023-07-20T18:29:30;21.40;39.40
10911;DHT22;5508;49.150;11.030;2023-07-20T18:32:30;21.30;41.60
10911;DHT22;5508;49.150;11.030;2023-07-20T18:35:31;21.20;41.30
10911;DHT22;5508;49.150;11.030;2023-07-20T18:38:34;21.10;40.90
10911;DHT22;5508;49.150;11.030;2023-07-20T18:41:35;21.00;45.40
10911;DHT22;5508;49.150;11.030;2023-07-20T18:44:35;20.90;44.70
10911;DHT22;5508;49.150;11.030;2023-07-20T18:47:36;20.70;44.70
10911;DHT22;5508;49.150;11.030;2023-07-20T18:50:36;20.60;44.90
10911;DHT22;5508;49.150;11.030;2023-07-20T18:53:37;20.50;45.50
10911;DHT22;5508;49.150;11.030;2023-07-20T18:56:38;20.40;44.60
10911;DHT22;5508;49.150;11.030;2023-07-20T18:59:39;20.20;47.70
10911;DHT22;5508;49.150;11.030;2023-07-20T19:02:41;20.20;47.00
10911;DHT22;5508;49.150;11.030;2023-07-20T19:05:42;20.10;46.30
10911;DHT22;5508;49.150;11.030;2023-07-20T19:08:45;20.00;48.10
10911;DHT22;5508;49.150;11.030;2023-07-20T19:11:45;19.90;47.00
10911;DHT22;5508;49.150;11.030;2023-07-20T19:14:46;19.90;49.00
10911;DHT22;5508;49.150;11.030;2023-07-20T19:17:46;19.80;49.30
10911;DHT22;5508;49.150;11.030;2023-07-20T19:20:47;19.70;49.30